createdAt,value
2023-03-06T00:00:01.850Z,35.73
2023-03-06T00:02:28.927Z,46.23
2023-03-06T00:04:57.457Z,29.83
2023-03-06T00:07:24.476Z,30.27
2023-03-06T00:09:51.472Z,30.67
2023-03-06T00:12:18.582Z,31.37
2023-03-06T00:14:45.562Z,31.00
2023-03-06T00:17:12.548Z,38.57
2023-03-06T00:19:39.660Z,32.97
2023-03-06T00:22:10.241Z,39.40
2023-03-06T00:24:37.217Z,40.00
2023-03-06T00:27:04.793Z,30.37
2023-03-06T00:29:31.682Z,35.50
2023-03-06T00:31:58.812Z,38.80
2023-03-06T00:34:26.135Z,34.57
2023-03-06T00:36:53.434Z,34.30
2023-03-06T00:39:22.286Z,36.17
2023-03-06T00:41:49.221Z,35.93
2023-03-06T00:44:16.193Z,37.80
2023-03-06T00:46:43.410Z,36.23
2023-03-06T00:49:10.394Z,35.30
2023-03-06T00:51:37.334Z,33.97
2023-03-06T00:54:04.280Z,35.13
2023-03-06T00:56:32.554Z,32.40
2023-03-06T00:58:59.667Z,32.80
2023-03-06T01:01:26.708Z,33.63
2023-03-06T01:03:53.675Z,36.67
2023-03-06T01:06:20.821Z,34.37
2023-03-06T01:08:47.932Z,39.10
2023-03-06T01:11:14.923Z,43.33
2023-03-06T01:13:44.260Z,41.47
2023-03-06T01:16:13.740Z,43.80
2023-03-06T01:18:40.888Z,39.53
2023-03-06T01:21:08.520Z,36.60
2023-03-06T01:23:35.617Z,34.27
2023-03-06T01:26:02.922Z,34.00
2023-03-06T01:28:30.080Z,34.80
2023-03-06T01:30:58.497Z,35.87
2023-03-06T01:33:25.486Z,42.50
2023-03-06T01:35:52.540Z,33.40
2023-03-06T01:38:19.752Z,35.90
2023-03-06T01:40:47.251Z,38.50
2023-03-06T01:43:27.183Z,32.80
2023-03-06T01:46:23.743Z,36.60
2023-03-06T01:48:54.162Z,38.37
2023-03-06T01:51:21.772Z,38.37
2023-03-06T01:53:50.650Z,35.30
2023-03-06T01:56:18.253Z,46.87
2023-03-06T01:58:46.005Z,35.33
2023-03-06T02:01:14.784Z,42.20
2023-03-06T02:03:43.944Z,35.03
2023-03-06T02:06:11.493Z,37.47
2023-03-06T02:08:39.709Z,35.03
2023-03-06T02:11:15.608Z,37.20
2023-03-06T02:13:44.632Z,35.70
2023-03-06T02:16:16.605Z,36.70
2023-03-06T02:18:46.879Z,40.20
2023-03-06T02:21:20.398Z,45.90
2023-03-06T02:24:01.754Z,38.03
2023-03-06T02:26:33.251Z,41.93
2023-03-06T02:29:00.622Z,39.77
2023-03-06T02:31:30.830Z,42.87
2023-03-06T02:34:03.521Z,40.03
2023-03-06T02:36:32.015Z,31.37
2023-03-06T02:38:59.812Z,40.33
2023-03-06T02:41:27.123Z,33.90
2023-03-06T02:43:55.980Z,40.13
2023-03-06T02:46:25.978Z,47.57
2023-03-06T02:48:59.097Z,46.03
2023-03-06T02:51:26.364Z,41.90
2023-03-06T02:53:54.432Z,37.83
2023-03-06T02:56:21.618Z,37.30
2023-03-06T02:58:49.573Z,50.70
2023-03-06T03:01:18.354Z,35.43
2023-03-06T03:03:45.729Z,34.13
2023-03-06T03:06:12.663Z,39.70
2023-03-06T03:08:39.630Z,35.07
2023-03-06T03:11:14.883Z,40.30
2023-03-06T03:13:41.902Z,37.97
2023-03-06T03:16:14.117Z,42.53
2023-03-06T03:18:45.176Z,40.80
2023-03-06T03:21:13.797Z,37.33
2023-03-06T03:23:43.454Z,44.93
2023-03-06T03:26:13.494Z,42.17
2023-03-06T03:28:41.248Z,46.50
2023-03-06T03:31:10.041Z,32.47
2023-03-06T03:33:37.297Z,38.37
2023-03-06T03:36:07.776Z,35.40
2023-03-06T03:38:41.166Z,38.63
2023-03-06T03:41:08.135Z,45.25
2023-03-06T03:43:36.351Z,34.53
2023-03-06T03:46:03.450Z,41.13
2023-03-06T03:48:30.510Z,45.47
2023-03-06T03:51:07.546Z,35.13
2023-03-06T03:53:34.693Z,47.80
2023-03-06T03:56:01.783Z,37.03
2023-03-06T03:58:28.925Z,44.27
2023-03-06T04:00:55.943Z,40.20
2023-03-06T04:03:23.100Z,39.50
2023-03-06T04:05:50.187Z,40.70
2023-03-06T04:08:18.622Z,41.17
2023-03-06T04:10:45.756Z,38.73
2023-03-06T04:13:13.003Z,39.23
2023-03-06T04:15:40.524Z,38.70
2023-03-06T04:18:07.597Z,45.90
2023-03-06T04:20:35.191Z,46.20
2023-03-06T04:23:02.292Z,43.03
2023-03-06T04:25:30.641Z,42.57
2023-03-06T04:27:57.787Z,44.13
2023-03-06T04:30:24.896Z,35.80
2023-03-06T04:32:52.012Z,42.23
2023-03-06T04:35:25.639Z,40.23
2023-03-06T04:37:56.731Z,44.28
2023-03-06T04:40:28.773Z,38.87
2023-03-06T04:42:59.733Z,42.83
2023-03-06T04:45:29.714Z,47.87
2023-03-06T04:47:57.305Z,40.60
2023-03-06T04:50:26.045Z,51.90
2023-03-06T04:52:53.688Z,44.63
2023-03-06T04:55:20.939Z,48.03
2023-03-06T04:57:48.462Z,46.90
2023-03-06T05:00:19.943Z,51.07
2023-03-06T05:02:47.890Z,50.10
2023-03-06T05:05:18.406Z,43.40
2023-03-06T05:07:46.374Z,40.20
2023-03-06T05:10:15.993Z,35.30
2023-03-06T05:12:43.791Z,41.13
2023-03-06T05:15:12.586Z,38.13
2023-03-06T05:17:41.164Z,44.57
2023-03-06T05:20:10.455Z,42.00
2023-03-06T05:22:37.488Z,40.13
2023-03-06T05:25:05.480Z,42.97
2023-03-06T05:27:32.584Z,42.80
2023-03-06T05:29:59.927Z,43.83
2023-03-06T05:32:27.051Z,55.77
2023-03-06T05:34:55.719Z,53.33
2023-03-06T05:37:23.456Z,42.27
2023-03-06T05:39:51.044Z,40.80
2023-03-06T05:42:18.564Z,42.87
2023-03-06T05:44:45.859Z,46.33
2023-03-06T05:47:13.458Z,41.90
2023-03-06T05:49:40.887Z,40.00
2023-03-06T05:52:09.482Z,44.23
2023-03-06T05:54:37.366Z,45.77
2023-03-06T05:57:05.512Z,43.63
2023-03-06T05:59:33.393Z,48.77
2023-03-06T06:02:00.958Z,46.73
2023-03-06T06:04:28.141Z,43.00
2023-03-06T06:06:57.175Z,56.73
2023-03-06T06:09:26.546Z,49.67
2023-03-06T06:11:54.791Z,44.47
2023-03-06T06:14:22.164Z,41.90
2023-03-06T06:16:49.616Z,44.27
2023-03-06T06:19:20.395Z,49.70
2023-03-06T06:21:48.954Z,42.83
2023-03-06T06:24:17.469Z,47.73
2023-03-06T06:26:46.489Z,49.30
2023-03-06T06:29:14.067Z,55.23
2023-03-06T06:31:41.563Z,46.37
2023-03-06T06:34:10.459Z,52.10
2023-03-06T06:36:38.475Z,50.70
2023-03-06T06:39:05.986Z,50.37
2023-03-06T06:41:53.107Z,39.17
2023-03-06T06:44:21.386Z,46.17
2023-03-06T06:47:21.393Z,55.53
2023-03-06T06:49:37.240Z,44.50
2023-03-06T06:52:05.081Z,47.67
2023-03-06T06:54:32.904Z,46.53
2023-03-06T06:57:00.471Z,53.13
2023-03-06T06:59:28.886Z,48.27
2023-03-06T07:01:55.869Z,44.47
2023-03-06T07:04:22.932Z,47.90
2023-03-06T07:06:49.992Z,45.50
2023-03-06T07:09:16.969Z,46.63
2023-03-06T07:11:43.976Z,44.27
2023-03-06T07:14:10.834Z,49.60
2023-03-06T07:16:39.874Z,44.93
2023-03-06T07:19:07.058Z,49.50
2023-03-06T07:21:34.086Z,47.30
2023-03-06T07:24:01.295Z,44.07
2023-03-06T07:26:28.795Z,41.47
2023-03-06T07:28:55.874Z,49.57
2023-03-06T07:31:25.328Z,44.17
2023-03-06T07:33:54.681Z,61.07
2023-03-06T07:36:23.105Z,70.00
2023-03-06T07:38:50.385Z,112.97
2023-03-06T07:41:21.784Z,139.57
2023-03-06T07:43:49.884Z,59.20
2023-03-06T07:46:17.354Z,60.10
2023-03-06T07:48:44.821Z,49.60
2023-03-06T07:51:16.535Z,44.07
2023-03-06T07:53:43.824Z,44.13
2023-03-06T07:56:12.155Z,44.13
2023-03-06T07:58:41.087Z,42.03
2023-03-06T08:01:11.253Z,51.53
2023-03-06T08:03:38.527Z,48.58
2023-03-06T08:06:07.351Z,50.77
2023-03-06T08:08:36.286Z,50.90
2023-03-06T08:11:03.856Z,48.85
2023-03-06T08:13:30.895Z,44.15
2023-03-06T08:15:59.852Z,38.10
2023-03-06T08:18:27.627Z,43.80
2023-03-06T08:21:02.835Z,47.45
2023-03-06T08:23:30.226Z,43.63
2023-03-06T08:26:00.251Z,45.53
2023-03-06T08:28:28.712Z,41.55
2023-03-06T08:30:55.896Z,38.25
2023-03-06T08:33:23.403Z,42.25
2023-03-06T08:35:50.529Z,39.97
2023-03-06T08:38:17.666Z,44.72
2023-03-06T08:40:44.752Z,41.85
2023-03-06T08:43:14.324Z,46.13
2023-03-06T08:45:41.427Z,36.65
2023-03-06T08:48:08.428Z,37.88
2023-03-06T08:50:35.503Z,38.58
2023-03-06T08:53:02.749Z,38.58
2023-03-06T08:55:30.246Z,38.15
2023-03-06T08:57:58.643Z,31.90
2023-03-06T09:00:27.184Z,34.58
2023-03-06T09:02:54.296Z,34.75
2023-03-06T09:05:21.372Z,37.90
2023-03-06T09:07:48.391Z,32.92
2023-03-06T09:10:18.514Z,33.40
2023-03-06T09:12:51.500Z,29.42
2023-03-06T09:15:20.707Z,34.58
2023-03-06T09:17:49.289Z,39.13
2023-03-06T09:20:17.457Z,39.30
2023-03-06T09:22:45.776Z,39.25
2023-03-06T09:25:14.185Z,36.45
2023-03-06T09:27:41.370Z,34.80
2023-03-06T09:30:09.838Z,34.88
2023-03-06T09:32:36.929Z,30.30
2023-03-06T09:35:06.369Z,31.98
2023-03-06T09:37:33.539Z,36.15
2023-03-06T09:40:00.490Z,32.90
2023-03-06T09:42:29.028Z,31.20
2023-03-06T09:44:58.977Z,31.05
2023-03-06T09:47:41.011Z,33.90
2023-03-06T09:50:19.718Z,27.38
2023-03-06T09:52:58.414Z,29.65
2023-03-06T09:55:29.050Z,33.63
2023-03-06T09:58:01.385Z,32.15
2023-03-06T10:00:34.092Z,35.15
2023-03-06T10:03:15.094Z,26.45
2023-03-06T10:05:47.405Z,26.70
2023-03-06T10:08:24.340Z,31.38
2023-03-06T10:10:57.853Z,28.85
2023-03-06T10:13:30.219Z,25.60
2023-03-06T10:16:06.501Z,21.60
2023-03-06T10:18:33.685Z,18.38
2023-03-06T10:21:18.782Z,19.95
2023-03-06T10:23:54.011Z,24.20
2023-03-06T10:26:25.483Z,37.08
2023-03-06T10:29:06.933Z,27.20
2023-03-06T10:31:34.978Z,30.45
2023-03-06T10:34:16.099Z,33.00
2023-03-06T10:36:44.567Z,28.08
2023-03-06T10:39:17.066Z,23.55
2023-03-06T10:41:46.015Z,26.15
2023-03-06T10:44:24.222Z,22.90
2023-03-06T10:46:54.141Z,25.98
2023-03-06T10:49:39.041Z,30.25
2023-03-06T10:52:21.803Z,30.15
2023-03-06T10:54:49.262Z,27.85
2023-03-06T10:57:27.603Z,28.77
2023-03-06T10:59:56.947Z,24.38
2023-03-06T11:02:28.613Z,29.15
2023-03-06T11:04:57.467Z,23.05
2023-03-06T11:07:28.265Z,26.55
2023-03-06T11:10:16.153Z,32.05
2023-03-06T11:12:43.832Z,32.72
2023-03-06T11:15:23.526Z,38.35
2023-03-06T11:17:57.837Z,32.08
2023-03-06T11:20:30.292Z,30.02
2023-03-06T11:23:07.246Z,21.17
2023-03-06T11:25:40.187Z,24.20
2023-03-06T11:28:13.747Z,25.23
2023-03-06T11:30:46.365Z,34.78
2023-03-06T11:33:22.531Z,36.95
2023-03-06T11:35:58.571Z,34.55
2023-03-06T11:38:42.468Z,29.00
2023-03-06T11:41:20.254Z,25.90
2023-03-06T11:43:55.666Z,22.10
2023-03-06T11:46:27.559Z,20.00
2023-03-06T11:48:59.487Z,22.60
2023-03-06T11:51:30.384Z,17.30
2023-03-06T11:54:00.595Z,22.95
2023-03-06T11:56:36.412Z,23.40
2023-03-06T11:59:57.240Z,22.15
2023-03-06T12:02:40.970Z,21.42
2023-03-06T12:05:33.465Z,21.50
2023-03-06T12:08:16.257Z,17.40
2023-03-06T12:10:51.784Z,19.05
2023-03-06T12:16:46.161Z,21.48
2023-03-06T12:19:25.397Z,19.10
2023-03-06T12:22:14.830Z,19.42
2023-03-06T12:24:53.980Z,18.75
2023-03-06T12:27:34.828Z,23.73
2023-03-06T12:30:37.908Z,14.27
2023-03-06T12:33:17.514Z,14.45
2023-03-06T12:35:56.703Z,18.02
2023-03-06T12:38:44.012Z,17.20
2023-03-06T12:41:28.383Z,15.10
2023-03-06T12:44:27.080Z,15.77
2023-03-06T12:46:58.083Z,16.85
2023-03-06T12:49:32.480Z,15.50
2023-03-06T12:52:02.281Z,13.07
2023-03-06T12:54:31.577Z,25.35
2023-03-06T12:57:00.937Z,18.08
2023-03-06T12:59:44.859Z,14.52
2023-03-06T13:02:32.972Z,16.10
2023-03-06T13:05:21.692Z,17.25
2023-03-06T13:08:00.983Z,19.85
2023-03-06T13:10:30.993Z,20.63
2023-03-06T13:13:00.937Z,18.02
2023-03-06T13:15:41.327Z,17.00
2023-03-06T13:18:57.353Z,24.15
2023-03-06T13:21:43.898Z,19.63
2023-03-06T13:24:17.606Z,16.63
2023-03-06T13:26:50.871Z,22.90
2023-03-06T13:30:00.726Z,21.75
2023-03-06T13:32:34.878Z,21.77
2023-03-06T13:35:02.299Z,16.40
2023-03-06T13:37:53.434Z,19.52
2023-03-06T13:40:31.999Z,23.90
2023-03-06T13:43:19.078Z,18.23
2023-03-06T13:45:48.270Z,21.42
2023-03-06T13:48:43.796Z,22.30
2023-03-06T13:51:23.317Z,23.20
2023-03-06T13:54:17.417Z,21.90
2023-03-06T13:57:23.409Z,20.60
2023-03-06T14:00:21.440Z,19.90
2023-03-06T14:03:20.334Z,20.90
2023-03-06T14:05:50.776Z,23.48
2023-03-06T14:08:19.962Z,21.65
2023-03-06T14:10:57.922Z,21.73
2023-03-06T14:13:35.211Z,19.98
2023-03-06T14:16:11.583Z,19.50
2023-03-06T14:18:43.475Z,18.00
2023-03-06T14:21:14.713Z,21.77
2023-03-06T14:23:43.493Z,22.88
2023-03-06T14:26:15.706Z,19.73
2023-03-06T14:28:43.941Z,24.00
2023-03-06T14:31:17.846Z,23.17
2023-03-06T14:36:21.728Z,23.25
2023-03-06T14:38:52.784Z,20.55
2023-03-06T14:41:24.501Z,24.30
2023-03-06T14:43:51.510Z,22.33
2023-03-06T14:46:21.489Z,20.08
2023-03-06T14:48:49.398Z,20.13
2023-03-06T14:51:20.172Z,18.70
2023-03-06T14:53:49.374Z,23.48
2023-03-06T14:56:18.963Z,21.02
2023-03-06T14:58:55.048Z,30.52
2023-03-06T15:01:27.998Z,23.70
2023-03-06T15:03:59.305Z,33.40
2023-03-06T15:06:33.334Z,53.00
2023-03-06T15:11:53.911Z,22.00
2023-03-06T15:14:28.472Z,31.23
2023-03-06T15:16:55.537Z,22.08
2023-03-06T15:19:23.204Z,25.05
2023-03-06T15:21:52.632Z,24.13
2023-03-06T15:24:35.400Z,24.55
2023-03-06T15:27:04.592Z,26.23
2023-03-06T15:29:32.040Z,21.63
2023-03-06T15:32:26.053Z,33.85
2023-03-06T15:35:34.255Z,37.88
2023-03-06T15:38:19.669Z,27.60
2023-03-06T15:40:55.437Z,20.73
2023-03-06T15:43:22.496Z,21.35
2023-03-06T15:45:49.737Z,21.08
2023-03-06T15:48:18.175Z,16.98
2023-03-06T15:50:45.225Z,14.00
2023-03-06T15:53:13.678Z,14.02
2023-03-06T15:55:40.709Z,16.08
2023-03-06T15:58:14.874Z,15.57
2023-03-06T16:00:42.552Z,10.65
2023-03-06T16:03:10.373Z,21.70
2023-03-06T16:05:38.006Z,19.58
2023-03-06T16:08:05.723Z,30.85
2023-03-06T16:10:39.480Z,17.10
2023-03-06T16:13:11.632Z,15.70
2023-03-06T16:15:40.193Z,16.77
2023-03-06T16:18:07.323Z,14.77
2023-03-06T16:20:34.341Z,10.75
2023-03-06T16:23:01.440Z,16.83
2023-03-06T16:25:28.795Z,16.63
2023-03-06T16:27:58.261Z,9.82
2023-03-06T16:30:26.630Z,13.18
2023-03-06T16:32:53.713Z,11.10
2023-03-06T16:35:21.018Z,12.23
2023-03-06T16:37:48.068Z,10.07
2023-03-06T16:40:22.226Z,11.38
2023-03-06T16:42:50.561Z,12.82
2023-03-06T16:45:20.973Z,12.05
2023-03-06T16:47:49.310Z,13.43
2023-03-06T16:50:23.704Z,15.25
2023-03-06T16:52:51.771Z,32.92
2023-03-06T16:55:19.286Z,13.30
2023-03-06T16:57:46.381Z,17.70
2023-03-06T17:00:16.009Z,18.27
2023-03-06T17:02:45.047Z,15.90
2023-03-06T17:05:12.976Z,13.98
2023-03-06T17:07:40.142Z,10.88
2023-03-06T17:10:09.645Z,15.43
2023-03-06T17:12:36.683Z,11.15
2023-03-06T17:15:04.549Z,19.45
2023-03-06T17:17:31.697Z,15.05
2023-03-06T17:20:00.396Z,12.32
2023-03-06T17:22:27.522Z,10.80
2023-03-06T17:24:54.908Z,13.10
2023-03-06T17:27:23.253Z,14.32
2023-03-06T17:29:50.403Z,23.80
2023-03-06T17:32:17.328Z,19.90
2023-03-06T17:34:44.472Z,22.58
2023-03-06T17:37:12.862Z,19.42
2023-03-06T17:39:39.953Z,14.02
2023-03-06T17:42:08.858Z,16.85
2023-03-06T17:44:37.794Z,22.65
2023-03-06T17:47:05.514Z,13.00
2023-03-06T17:49:32.647Z,20.45
2023-03-06T17:52:06.088Z,22.15
2023-03-06T17:54:34.594Z,23.98
2023-03-06T17:57:03.630Z,19.08
2023-03-06T17:59:31.612Z,11.55
2023-03-06T18:01:59.172Z,17.90
2023-03-06T18:04:26.877Z,15.88
2023-03-06T18:06:54.068Z,12.52
2023-03-06T18:09:21.151Z,14.18
2023-03-06T18:11:49.542Z,13.43
2023-03-06T18:14:16.781Z,12.48
2023-03-06T18:16:43.800Z,18.95
2023-03-06T18:19:11.300Z,12.18
2023-03-06T18:21:39.348Z,19.65
2023-03-06T18:24:07.270Z,12.18
2023-03-06T18:26:34.551Z,10.05
2023-03-06T18:29:04.654Z,11.65
2023-03-06T18:31:34.705Z,26.75
2023-03-06T18:34:03.469Z,14.88
2023-03-06T18:36:32.762Z,14.73
2023-03-06T18:39:00.970Z,12.57
2023-03-06T18:41:28.351Z,14.82
2023-03-06T18:43:57.669Z,11.32
2023-03-06T18:46:29.188Z,12.15
2023-03-06T18:48:56.528Z,24.77
2023-03-06T18:51:23.536Z,14.52
2023-03-06T18:53:50.551Z,7.82
2023-03-06T18:56:19.780Z,13.23
2023-03-06T18:58:47.396Z,11.63
2023-03-06T19:01:14.941Z,16.30
2023-03-06T19:03:43.451Z,14.30
2023-03-06T19:06:12.504Z,10.30
2023-03-06T19:08:40.684Z,9.68
2023-03-06T19:11:10.502Z,9.20
2023-03-06T19:13:38.293Z,8.07
2023-03-06T19:16:06.748Z,5.25
2023-03-06T19:18:34.517Z,11.20
2023-03-06T19:21:10.138Z,9.30
2023-03-06T19:23:38.135Z,16.70
2023-03-06T19:26:05.372Z,11.10
2023-03-06T19:28:32.458Z,14.67
2023-03-06T19:30:59.495Z,9.80
2023-03-06T19:33:26.853Z,18.60
2023-03-06T19:35:54.069Z,14.57
2023-03-06T19:38:22.395Z,18.25
2023-03-06T19:40:50.175Z,12.27
2023-03-06T19:43:17.185Z,11.40
2023-03-06T19:45:44.772Z,9.83
2023-03-06T19:48:13.570Z,13.05
2023-03-06T19:50:41.044Z,8.63
2023-03-06T19:53:08.524Z,16.58
2023-03-06T19:55:37.621Z,11.17
2023-03-06T19:58:04.863Z,15.17
2023-03-06T20:00:31.994Z,15.67
2023-03-06T20:02:59.005Z,13.37
2023-03-06T20:05:26.156Z,14.40
2023-03-06T20:07:53.485Z,23.35
2023-03-06T20:10:20.770Z,15.05
2023-03-06T20:12:49.271Z,14.43
2023-03-06T20:15:19.058Z,16.53
2023-03-06T20:17:46.080Z,18.63
2023-03-06T20:20:13.655Z,12.83
2023-03-06T20:22:40.751Z,13.45
2023-03-06T20:25:08.344Z,12.27
2023-03-06T20:27:35.409Z,9.55
2023-03-06T20:30:06.953Z,12.70
2023-03-06T20:32:35.023Z,10.30
2023-03-06T20:35:02.277Z,12.17
2023-03-06T20:37:29.304Z,12.63
2023-03-06T20:39:56.361Z,12.00
2023-03-06T20:42:23.296Z,12.77
2023-03-06T20:44:50.226Z,13.77
2023-03-06T20:47:18.736Z,6.35
2023-03-06T20:49:45.642Z,12.43
2023-03-06T20:52:12.717Z,9.93
2023-03-06T20:54:39.785Z,9.18
2023-03-06T20:57:06.827Z,14.80
2023-03-06T20:59:33.743Z,17.90
2023-03-06T21:02:00.808Z,13.27
2023-03-06T21:04:29.414Z,34.97
2023-03-06T21:06:56.407Z,11.25
2023-03-06T21:09:23.589Z,7.80
2023-03-06T21:11:51.021Z,12.55
2023-03-06T21:14:17.999Z,8.32
2023-03-06T21:16:45.306Z,14.17
2023-03-06T21:19:12.578Z,9.20
2023-03-06T21:21:41.401Z,13.65
2023-03-06T21:24:08.461Z,10.75
2023-03-06T21:26:35.643Z,8.93
2023-03-06T21:29:03.729Z,12.07
2023-03-06T21:31:31.935Z,9.20
2023-03-06T21:33:59.542Z,12.63
2023-03-06T21:36:27.132Z,9.38
2023-03-06T21:38:55.903Z,12.88
2023-03-06T21:41:24.907Z,12.23
2023-03-06T21:43:55.225Z,20.20
2023-03-06T21:46:22.496Z,12.73
2023-03-06T21:48:49.801Z,26.55
2023-03-06T21:51:23.557Z,10.93
2023-03-06T21:53:51.664Z,23.75
2023-03-06T21:56:22.525Z,12.73
2023-03-06T21:58:49.581Z,11.40
2023-03-06T22:01:19.726Z,11.40
2023-03-06T22:03:46.770Z,11.07
2023-03-06T22:06:15.949Z,9.40
2023-03-06T22:08:43.918Z,8.17
2023-03-06T22:11:12.643Z,12.60
2023-03-06T22:13:41.972Z,15.93
2023-03-06T22:16:09.497Z,17.27
2023-03-06T22:18:36.696Z,11.85
2023-03-06T22:21:07.454Z,17.50
2023-03-06T22:23:34.364Z,11.70
2023-03-06T22:26:02.814Z,11.05
2023-03-06T22:28:29.920Z,12.77
2023-03-06T22:31:03.097Z,10.45
2023-03-06T22:33:30.236Z,12.73
2023-03-06T22:36:02.587Z,8.77
2023-03-06T22:38:29.649Z,11.67
2023-03-06T22:40:57.042Z,8.10
2023-03-06T22:43:24.270Z,8.20
2023-03-06T22:45:52.790Z,8.93
2023-03-06T22:48:21.947Z,10.33
2023-03-06T22:50:48.898Z,11.15
2023-03-06T22:53:15.902Z,12.60
2023-03-06T22:55:42.867Z,7.20
2023-03-06T22:58:09.774Z,9.93
2023-03-06T23:00:36.807Z,11.07
2023-03-06T23:03:04.326Z,9.27
2023-03-06T23:05:32.686Z,16.58
2023-03-06T23:07:59.553Z,11.07
2023-03-06T23:10:26.547Z,10.38
2023-03-06T23:12:53.614Z,12.23
2023-03-06T23:15:21.074Z,14.57
2023-03-06T23:17:48.114Z,20.38
2023-03-06T23:20:15.311Z,11.37
2023-03-06T23:22:44.333Z,9.85
2023-03-06T23:25:11.296Z,17.13
2023-03-06T23:27:38.566Z,9.48
2023-03-06T23:30:06.367Z,18.27
2023-03-06T23:32:34.151Z,15.27
2023-03-06T23:35:02.009Z,11.23
2023-03-06T23:37:29.040Z,17.58
2023-03-06T23:39:57.808Z,7.43
2023-03-06T23:42:24.913Z,8.60
2023-03-06T23:44:51.920Z,12.17
2023-03-06T23:47:20.125Z,10.47
2023-03-06T23:49:47.134Z,10.05
2023-03-06T23:52:14.108Z,7.68
2023-03-06T23:54:41.253Z,12.40
2023-03-06T23:57:10.003Z,7.32
2023-03-06T23:59:37.494Z,8.80
